createdAt,value
2022-11-17T00:00:18.933Z,23.42
2022-11-17T00:02:46.984Z,20.52
2022-11-17T00:05:14.721Z,23.55
2022-11-17T00:07:44.013Z,25.77
2022-11-17T00:10:11.302Z,24.10
2022-11-17T00:12:57.234Z,20.63
2022-11-17T00:15:24.179Z,20.90
2022-11-17T00:18:11.316Z,20.88
2022-11-17T00:20:58.299Z,23.23
2022-11-17T00:23:25.986Z,21.77
2022-11-17T00:25:52.948Z,23.45
2022-11-17T00:28:19.895Z,23.23
2022-11-17T00:31:05.253Z,28.83
2022-11-17T00:33:50.623Z,24.13
2022-11-17T00:36:17.545Z,23.30
2022-11-17T00:38:44.443Z,20.33
2022-11-17T00:41:11.412Z,20.60
2022-11-17T00:43:38.348Z,25.48
2022-11-17T00:46:05.423Z,20.80
2022-11-17T00:48:32.331Z,22.92
2022-11-17T00:51:04.047Z,21.77
2022-11-17T00:53:30.980Z,22.63
2022-11-17T00:55:57.940Z,20.58
2022-11-17T00:58:24.872Z,23.08
2022-11-17T01:00:52.921Z,18.67
2022-11-17T01:03:19.878Z,16.00
2022-11-17T01:05:46.829Z,16.27
2022-11-17T01:08:13.744Z,18.08
2022-11-17T01:10:40.685Z,19.90
2022-11-17T01:13:07.632Z,15.07
2022-11-17T01:15:34.893Z,18.58
2022-11-17T01:18:01.825Z,17.25
2022-11-17T01:20:28.904Z,14.80
2022-11-17T01:22:55.933Z,17.45
2022-11-17T01:25:22.887Z,18.60
2022-11-17T01:27:49.787Z,17.08
2022-11-17T01:30:18.275Z,18.30
2022-11-17T01:32:45.240Z,15.52
2022-11-17T01:35:12.219Z,14.88
2022-11-17T01:37:39.139Z,16.73
2022-11-17T01:40:06.817Z,14.95
2022-11-17T01:42:33.740Z,16.65
2022-11-17T01:45:21.865Z,15.85
2022-11-17T01:47:57.874Z,18.90
2022-11-17T01:50:37.514Z,16.75
2022-11-17T01:53:12.874Z,16.05
2022-11-17T01:55:48.558Z,13.98
2022-11-17T01:58:21.230Z,14.63
2022-11-17T02:00:48.311Z,16.23
2022-11-17T02:03:15.664Z,17.02
2022-11-17T02:06:12.856Z,17.63
2022-11-17T02:08:44.998Z,17.02
2022-11-17T02:11:18.447Z,15.35
2022-11-17T02:13:46.349Z,15.63
2022-11-17T02:16:14.801Z,17.90
2022-11-17T02:18:43.423Z,13.30
2022-11-17T02:21:39.543Z,16.25
2022-11-17T02:24:44.058Z,13.48
2022-11-17T02:27:35.902Z,12.77
2022-11-17T02:30:15.568Z,14.15
2022-11-17T02:33:03.514Z,15.60
2022-11-17T02:36:07.109Z,13.65
2022-11-17T02:39:25.135Z,14.23
2022-11-17T02:42:45.456Z,17.83
2022-11-17T02:45:23.319Z,15.55
2022-11-17T02:47:59.238Z,14.07
2022-11-17T02:50:31.268Z,12.00
2022-11-17T02:53:12.343Z,11.77
2022-11-17T02:55:53.754Z,15.32
2022-11-17T02:58:34.418Z,14.55
2022-11-17T03:01:36.472Z,13.27
2022-11-17T03:04:23.069Z,14.35
2022-11-17T03:07:33.557Z,14.95
2022-11-17T03:10:16.664Z,12.15
2022-11-17T03:13:39.777Z,12.35
2022-11-17T03:16:18.127Z,12.30
2022-11-17T03:19:16.305Z,13.23
2022-11-17T03:22:21.635Z,12.77
2022-11-17T03:25:10.516Z,12.95
2022-11-17T03:27:47.317Z,14.10
2022-11-17T03:30:34.689Z,19.60
2022-11-17T03:33:15.076Z,16.00
2022-11-17T03:35:58.233Z,17.30
2022-11-17T03:38:53.192Z,19.00
2022-11-17T03:42:06.938Z,19.13
2022-11-17T03:44:41.203Z,16.50
2022-11-17T03:50:16.627Z,20.88
2022-11-17T03:52:44.773Z,18.38
2022-11-17T03:55:12.869Z,18.58
2022-11-17T03:57:54.775Z,30.77
2022-11-17T04:00:22.042Z,29.20
2022-11-17T04:02:54.104Z,29.75
2022-11-17T04:05:21.203Z,28.35
2022-11-17T04:07:49.146Z,23.63
2022-11-17T04:10:18.397Z,26.25
2022-11-17T04:13:04.879Z,22.00
2022-11-17T04:15:50.598Z,19.15
2022-11-17T04:18:18.103Z,18.10
2022-11-17T04:20:45.748Z,20.30
2022-11-17T04:23:14.893Z,20.45
2022-11-17T04:26:00.283Z,18.95
2022-11-17T04:28:37.601Z,21.08
2022-11-17T04:31:25.436Z,35.47
2022-11-17T04:33:53.621Z,18.48
2022-11-17T04:36:23.291Z,19.70
2022-11-17T04:38:52.590Z,17.92
2022-11-17T04:41:40.379Z,13.10
2022-11-17T04:44:09.024Z,17.40
2022-11-17T04:46:37.906Z,18.20
2022-11-17T04:49:05.654Z,15.30
2022-11-17T04:51:33.257Z,29.95
2022-11-17T04:54:00.858Z,15.38
2022-11-17T04:56:29.474Z,21.38
2022-11-17T04:58:56.896Z,13.13
2022-11-17T05:01:25.335Z,19.48
2022-11-17T05:03:57.573Z,16.95
2022-11-17T05:06:29.731Z,13.93
2022-11-17T05:08:57.235Z,12.48
2022-11-17T05:11:44.621Z,27.35
2022-11-17T05:14:13.059Z,12.20
2022-11-17T05:16:58.633Z,11.77
2022-11-17T05:19:28.269Z,11.77
2022-11-17T05:21:55.884Z,12.10
2022-11-17T05:24:23.090Z,11.80
2022-11-17T05:26:50.902Z,9.98
2022-11-17T05:29:20.757Z,11.15
2022-11-17T05:31:48.406Z,11.30
2022-11-17T05:34:17.470Z,15.07
2022-11-17T05:36:45.014Z,13.35
2022-11-17T05:39:12.085Z,11.32
2022-11-17T05:41:39.037Z,12.55
2022-11-17T05:44:06.047Z,10.32
2022-11-17T05:46:33.224Z,8.90
2022-11-17T05:49:00.444Z,12.30
2022-11-17T05:51:27.991Z,9.10
2022-11-17T05:53:54.939Z,8.80
2022-11-17T05:56:37.058Z,9.65
2022-11-17T05:59:33.698Z,10.35
2022-11-17T06:02:03.602Z,9.93
2022-11-17T06:04:31.240Z,9.88
2022-11-17T06:06:59.852Z,9.85
2022-11-17T06:09:29.095Z,9.55
2022-11-17T06:11:58.632Z,10.73
2022-11-17T06:14:29.469Z,10.25
2022-11-17T06:17:03.557Z,13.32
2022-11-17T06:19:35.726Z,13.05
2022-11-17T06:22:17.098Z,10.75
2022-11-17T06:24:45.335Z,12.50
2022-11-17T06:27:15.647Z,9.63
2022-11-17T06:29:44.930Z,10.10
2022-11-17T06:32:14.342Z,14.85
2022-11-17T06:34:43.090Z,10.90
2022-11-17T06:37:11.460Z,8.25
2022-11-17T06:39:38.459Z,8.73
2022-11-17T06:42:05.481Z,9.75
2022-11-17T06:44:32.470Z,11.02
2022-11-17T06:46:59.409Z,7.70
2022-11-17T06:49:26.389Z,9.70
2022-11-17T06:51:53.383Z,8.15
2022-11-17T06:54:20.333Z,10.13
2022-11-17T06:56:49.695Z,7.55
2022-11-17T06:59:17.221Z,7.88
2022-11-17T07:01:44.212Z,7.07
2022-11-17T07:04:11.162Z,9.70
2022-11-17T07:06:38.459Z,7.13
2022-11-17T07:09:05.881Z,11.25
2022-11-17T07:11:36.313Z,9.13
2022-11-17T07:14:03.535Z,8.45
2022-11-17T07:16:31.108Z,7.50
2022-11-17T07:18:59.365Z,9.55
2022-11-17T07:21:26.490Z,10.35
2022-11-17T07:23:53.673Z,10.45
2022-11-17T07:26:20.765Z,8.57
2022-11-17T07:28:47.750Z,9.43
2022-11-17T07:31:14.782Z,8.57
2022-11-17T07:33:42.016Z,8.20
2022-11-17T07:36:11.414Z,11.93
2022-11-17T07:38:40.086Z,8.68
2022-11-17T07:41:09.415Z,12.88
2022-11-17T07:43:37.083Z,13.77
2022-11-17T07:46:12.298Z,12.48
2022-11-17T07:48:40.152Z,11.30
2022-11-17T07:51:07.574Z,10.45
2022-11-17T07:53:35.427Z,10.73
2022-11-17T07:56:10.342Z,12.20
2022-11-17T07:58:38.357Z,12.32
2022-11-17T08:01:16.433Z,12.68
2022-11-17T08:03:44.213Z,12.32
2022-11-17T08:06:11.710Z,11.38
2022-11-17T08:08:39.335Z,11.32
2022-11-17T08:11:09.311Z,14.02
2022-11-17T08:13:37.445Z,10.57
2022-11-17T08:16:04.699Z,11.27
2022-11-17T08:18:32.056Z,13.15
2022-11-17T08:21:07.184Z,11.30
2022-11-17T08:23:34.273Z,11.98
2022-11-17T08:26:02.416Z,12.85
2022-11-17T08:28:29.670Z,11.60
2022-11-17T08:30:56.765Z,12.95
2022-11-17T08:33:23.731Z,14.30
2022-11-17T08:35:50.721Z,13.00
2022-11-17T08:38:18.354Z,13.57
2022-11-17T08:40:46.584Z,15.10
2022-11-17T08:43:13.517Z,13.02
2022-11-17T08:45:42.736Z,12.93
2022-11-17T08:48:09.670Z,12.90
2022-11-17T08:50:36.688Z,14.85
2022-11-17T08:53:03.660Z,13.55
2022-11-17T08:55:30.744Z,13.30
2022-11-17T08:57:57.769Z,11.88
2022-11-17T09:00:25.009Z,12.48
2022-11-17T09:02:51.982Z,10.98
2022-11-17T09:05:18.981Z,11.93
2022-11-17T09:07:45.994Z,11.02
2022-11-17T09:10:13.020Z,12.13
2022-11-17T09:12:40.021Z,13.07
2022-11-17T09:15:07.444Z,14.73
2022-11-17T09:17:34.448Z,13.98
2022-11-17T09:20:01.383Z,13.45
2022-11-17T09:22:28.411Z,15.60
2022-11-17T09:24:55.384Z,15.30
2022-11-17T09:27:22.452Z,14.98
2022-11-17T09:29:49.363Z,16.55
2022-11-17T09:32:16.955Z,12.93
2022-11-17T09:34:44.022Z,13.63
2022-11-17T09:37:11.053Z,15.02
2022-11-17T09:39:37.967Z,14.00
2022-11-17T09:42:05.310Z,12.38
2022-11-17T09:44:39.562Z,11.82
2022-11-17T09:47:41.311Z,11.57
2022-11-17T09:50:23.052Z,11.77
2022-11-17T09:55:33.876Z,11.05
2022-11-17T09:58:11.234Z,13.70
2022-11-17T10:00:43.404Z,20.88
2022-11-17T10:03:20.912Z,14.38
2022-11-17T10:05:49.007Z,11.32
2022-11-17T10:08:20.454Z,12.80
2022-11-17T10:10:49.839Z,12.48
2022-11-17T10:13:19.547Z,12.90
2022-11-17T10:15:49.351Z,10.77
2022-11-17T10:18:16.924Z,12.75
2022-11-17T10:20:44.914Z,13.35
2022-11-17T10:23:18.399Z,14.43
2022-11-17T10:25:47.573Z,28.35
2022-11-17T10:28:32.795Z,13.27
2022-11-17T10:31:01.054Z,13.35
2022-11-17T10:33:40.139Z,11.38
2022-11-17T10:36:13.327Z,10.13
2022-11-17T10:38:51.743Z,12.77
2022-11-17T10:41:25.575Z,12.20
2022-11-17T10:44:04.885Z,11.93
2022-11-17T10:46:43.228Z,14.48
2022-11-17T10:49:25.952Z,11.23
2022-11-17T10:52:17.370Z,8.65
2022-11-17T10:54:44.675Z,9.38
2022-11-17T10:57:22.526Z,10.60
2022-11-17T10:59:56.786Z,8.77
2022-11-17T11:02:31.869Z,10.57
2022-11-17T11:05:14.700Z,12.85
2022-11-17T11:07:42.111Z,11.77
2022-11-17T11:10:31.841Z,14.65
2022-11-17T11:13:16.569Z,13.75
2022-11-17T11:15:45.997Z,12.68
2022-11-17T11:18:15.032Z,15.77
2022-11-17T11:21:12.524Z,16.80
2022-11-17T11:23:54.940Z,15.80
2022-11-17T11:26:58.050Z,20.30
2022-11-17T11:29:44.164Z,19.33
2022-11-17T11:32:32.862Z,18.73
2022-11-17T11:35:41.952Z,16.17
2022-11-17T11:38:40.008Z,23.65
2022-11-17T11:41:25.079Z,16.02
2022-11-17T11:44:17.272Z,18.65
2022-11-17T11:47:02.912Z,15.77
2022-11-17T11:49:46.423Z,15.20
2022-11-17T11:52:20.977Z,39.08
2022-11-17T11:54:59.634Z,22.65
2022-11-17T11:57:37.098Z,24.02
2022-11-17T12:00:22.324Z,17.67
2022-11-17T12:03:13.258Z,18.00
2022-11-17T12:05:58.350Z,21.23
2022-11-17T12:08:36.069Z,20.92
2022-11-17T12:11:26.511Z,24.08
2022-11-17T12:13:55.220Z,26.42
2022-11-17T12:16:36.741Z,22.73
2022-11-17T12:19:47.474Z,25.25
2022-11-17T12:22:34.405Z,23.58
2022-11-17T12:25:13.618Z,20.30
2022-11-17T12:27:41.972Z,29.30
2022-11-17T12:30:30.869Z,24.17
2022-11-17T12:33:04.737Z,27.10
2022-11-17T12:35:34.284Z,26.30
2022-11-17T12:38:16.575Z,25.38
2022-11-17T12:40:57.015Z,23.23
2022-11-17T12:43:26.098Z,19.92
2022-11-17T12:45:56.941Z,21.88
2022-11-17T12:48:34.987Z,24.92
2022-11-17T12:51:08.193Z,22.98
2022-11-17T12:53:48.744Z,20.23
2022-11-17T12:56:33.313Z,21.25
2022-11-17T12:59:08.366Z,21.23
2022-11-17T13:01:38.474Z,21.42
2022-11-17T13:04:33.648Z,23.75
2022-11-17T13:07:17.510Z,21.40
2022-11-17T13:09:44.504Z,22.25
2022-11-17T13:12:11.464Z,21.55
2022-11-17T13:14:56.560Z,25.02
2022-11-17T13:17:44.166Z,21.48
2022-11-17T13:20:25.005Z,23.83
2022-11-17T13:23:02.971Z,20.87
2022-11-17T13:25:30.860Z,22.20
2022-11-17T13:28:04.177Z,19.45
2022-11-17T13:30:33.069Z,27.08
2022-11-17T13:33:03.136Z,20.23
2022-11-17T13:35:33.075Z,19.98
2022-11-17T13:38:12.193Z,24.00
2022-11-17T13:40:41.243Z,21.65
2022-11-17T13:43:13.492Z,20.92
2022-11-17T13:45:43.015Z,23.40
2022-11-17T13:48:31.746Z,21.08
2022-11-17T13:51:15.231Z,25.13
2022-11-17T13:53:45.081Z,23.30
2022-11-17T13:56:33.282Z,18.50
2022-11-17T13:59:04.145Z,20.48
2022-11-17T14:01:33.148Z,18.70
2022-11-17T14:04:22.051Z,18.98
2022-11-17T14:07:00.901Z,20.20
2022-11-17T14:09:34.567Z,18.63
2022-11-17T14:12:08.313Z,18.10
2022-11-17T14:14:43.029Z,15.48
2022-11-17T14:17:20.594Z,16.75
2022-11-17T14:19:48.386Z,18.58
2022-11-17T14:22:22.351Z,17.08
2022-11-17T14:24:53.335Z,15.68
2022-11-17T14:27:29.815Z,16.83
2022-11-17T14:29:56.809Z,18.88
2022-11-17T14:32:23.972Z,19.80
2022-11-17T14:34:50.913Z,16.20
2022-11-17T14:37:17.963Z,15.48
2022-11-17T14:39:45.337Z,15.93
2022-11-17T14:42:12.570Z,19.65
2022-11-17T14:44:39.718Z,21.13
2022-11-17T14:47:06.890Z,20.58
2022-11-17T14:49:33.865Z,18.23
2022-11-17T14:52:02.443Z,13.82
2022-11-17T14:54:29.375Z,15.98
2022-11-17T14:56:56.378Z,14.23
2022-11-17T14:59:23.309Z,14.52
2022-11-17T15:01:50.259Z,14.35
2022-11-17T15:07:04.338Z,13.07
2022-11-17T15:09:31.587Z,15.18
2022-11-17T15:11:58.544Z,17.48
2022-11-17T15:14:25.523Z,13.00
2022-11-17T15:16:52.473Z,18.15
2022-11-17T15:19:19.423Z,18.92
2022-11-17T15:21:46.381Z,16.38
2022-11-17T15:24:13.853Z,18.42
2022-11-17T15:26:41.281Z,14.38
2022-11-17T15:29:12.054Z,14.85
2022-11-17T15:31:39.053Z,16.58
2022-11-17T15:34:05.990Z,15.38
2022-11-17T15:36:33.024Z,12.95
2022-11-17T15:38:59.984Z,14.93
2022-11-17T15:41:32.419Z,14.57
2022-11-17T15:44:00.167Z,15.73
2022-11-17T15:46:27.200Z,19.98
2022-11-17T15:49:17.331Z,19.55
2022-11-17T15:51:44.786Z,29.00
2022-11-17T15:54:18.209Z,24.50
2022-11-17T15:56:46.882Z,20.50
2022-11-17T15:59:14.482Z,18.33
2022-11-17T16:01:41.853Z,19.23
2022-11-17T16:04:11.048Z,18.67
2022-11-17T16:06:40.101Z,14.70
2022-11-17T16:09:08.143Z,17.90
2022-11-17T16:11:36.539Z,17.13
2022-11-17T16:14:04.474Z,14.27
2022-11-17T16:16:36.709Z,17.17
2022-11-17T16:19:04.820Z,16.02
2022-11-17T16:21:32.313Z,18.50
2022-11-17T16:24:00.906Z,17.27
2022-11-17T16:26:29.338Z,17.48
2022-11-17T16:29:02.148Z,18.08
2022-11-17T16:31:31.798Z,19.08
2022-11-17T16:34:21.903Z,16.15
2022-11-17T16:36:49.103Z,16.25
2022-11-17T16:39:17.955Z,14.68
2022-11-17T16:41:45.974Z,29.95
2022-11-17T16:44:16.111Z,22.75
2022-11-17T16:46:45.265Z,25.45
2022-11-17T16:49:14.703Z,20.88
2022-11-17T16:51:49.069Z,23.95
2022-11-17T16:54:18.007Z,21.83
2022-11-17T16:56:45.716Z,17.05
2022-11-17T16:59:16.961Z,19.85
2022-11-17T17:01:48.092Z,17.17
2022-11-17T17:04:20.349Z,20.63
2022-11-17T17:07:02.770Z,16.80
2022-11-17T17:09:36.193Z,14.82
2022-11-17T17:12:06.590Z,19.67
2022-11-17T17:14:39.635Z,17.60
2022-11-17T17:17:13.588Z,16.92
2022-11-17T17:19:44.244Z,15.18
2022-11-17T17:22:20.563Z,17.67
2022-11-17T17:24:55.171Z,16.15
2022-11-17T17:27:34.335Z,20.08
2022-11-17T17:30:15.095Z,18.08
2022-11-17T17:32:43.884Z,17.42
2022-11-17T17:35:16.771Z,18.25
2022-11-17T17:37:45.804Z,16.27
2022-11-17T17:40:22.604Z,18.13
2022-11-17T17:42:53.891Z,17.65
2022-11-17T17:45:29.199Z,18.17
2022-11-17T17:48:05.882Z,18.48
2022-11-17T17:50:47.975Z,12.90
2022-11-17T17:53:31.360Z,15.63
2022-11-17T17:56:22.883Z,16.35
2022-11-17T17:59:05.623Z,16.23
2022-11-17T18:02:16.167Z,17.52
2022-11-17T18:05:03.091Z,16.25
2022-11-17T18:07:42.214Z,20.98
2022-11-17T18:10:41.894Z,15.43
2022-11-17T18:13:12.829Z,22.98
2022-11-17T18:16:20.515Z,19.20
2022-11-17T18:22:58.850Z,24.08
2022-11-17T18:25:37.078Z,21.30
2022-11-17T18:28:47.014Z,26.70
2022-11-17T18:31:26.982Z,23.27
2022-11-17T18:34:03.449Z,21.67
2022-11-17T18:36:40.429Z,22.33
2022-11-17T18:39:23.962Z,25.75
2022-11-17T18:42:02.580Z,22.55
2022-11-17T18:44:54.495Z,19.88
2022-11-17T18:47:26.370Z,25.02
2022-11-17T18:49:58.637Z,24.38
2022-11-17T18:52:39.098Z,24.48
2022-11-17T18:55:15.159Z,19.80
2022-11-17T18:58:01.773Z,19.83
2022-11-17T19:00:30.655Z,26.02
2022-11-17T19:03:02.415Z,26.58
2022-11-17T19:05:39.072Z,23.00
2022-11-17T19:08:17.195Z,18.10
2022-11-17T19:11:06.682Z,24.55
2022-11-17T19:13:41.802Z,20.98
2022-11-17T19:16:22.372Z,21.35
2022-11-17T19:18:59.661Z,19.50
2022-11-17T19:21:35.920Z,21.40
2022-11-17T19:24:08.702Z,22.38
2022-11-17T19:26:40.962Z,24.35
2022-11-17T19:29:21.714Z,21.20
2022-11-17T19:32:00.464Z,21.65
2022-11-17T19:34:34.307Z,22.52
2022-11-17T19:37:09.910Z,24.38
2022-11-17T19:39:43.516Z,21.27
2022-11-17T19:42:16.812Z,17.92
2022-11-17T19:44:50.717Z,21.60
2022-11-17T19:47:36.296Z,27.13
2022-11-17T19:50:04.588Z,22.80
2022-11-17T19:52:51.589Z,21.90
2022-11-17T19:55:21.880Z,21.58
2022-11-17T19:57:50.198Z,20.48
2022-11-17T20:00:22.562Z,21.50
2022-11-17T20:02:56.722Z,22.38
2022-11-17T20:05:24.844Z,20.58
2022-11-17T20:08:07.754Z,20.88
2022-11-17T20:10:38.477Z,21.13
2022-11-17T20:13:07.851Z,17.30
2022-11-17T20:15:43.046Z,19.80
2022-11-17T20:18:16.541Z,20.63
2022-11-17T20:20:48.709Z,21.40
2022-11-17T20:23:19.868Z,16.30
2022-11-17T20:25:57.634Z,17.10
2022-11-17T20:28:31.088Z,22.45
2022-11-17T20:30:59.305Z,19.58
2022-11-17T20:33:31.208Z,25.30
2022-11-17T20:36:08.453Z,21.98
2022-11-17T20:38:40.015Z,16.08
2022-11-17T20:41:10.863Z,18.25
2022-11-17T20:43:41.178Z,21.45
2022-11-17T20:46:09.691Z,16.88
2022-11-17T20:48:37.859Z,16.38
2022-11-17T20:51:09.862Z,22.17
2022-11-17T20:53:38.315Z,21.75
2022-11-17T20:56:07.917Z,18.60
2022-11-17T20:58:36.333Z,19.15
2022-11-17T21:01:12.735Z,23.35
2022-11-17T21:03:40.405Z,21.08
2022-11-17T21:06:08.852Z,19.90
2022-11-17T21:08:39.743Z,25.90
2022-11-17T21:11:32.597Z,22.02
2022-11-17T21:14:00.344Z,20.67
2022-11-17T21:16:27.777Z,20.88
2022-11-17T21:18:55.170Z,19.50
2022-11-17T21:21:23.166Z,16.75
2022-11-17T21:23:54.851Z,20.27
2022-11-17T21:26:25.798Z,18.08
2022-11-17T21:28:53.013Z,16.17
2022-11-17T21:31:23.763Z,19.63
2022-11-17T21:33:59.286Z,20.92
2022-11-17T21:36:27.793Z,16.35
2022-11-17T21:38:55.394Z,19.70
2022-11-17T21:41:25.462Z,17.30
2022-11-17T21:43:53.973Z,21.33
2022-11-17T21:46:26.398Z,19.30
2022-11-17T21:48:55.290Z,24.58
2022-11-17T21:51:24.163Z,19.02
2022-11-17T21:53:56.565Z,23.83
2022-11-17T21:56:27.058Z,28.77
2022-11-17T21:59:05.246Z,24.57
2022-11-17T22:01:33.007Z,20.58
2022-11-17T22:04:00.374Z,24.55
2022-11-17T22:06:28.034Z,19.58
2022-11-17T22:08:56.548Z,19.90
2022-11-17T22:11:38.295Z,18.58
2022-11-17T22:14:13.965Z,19.38
2022-11-17T22:16:46.049Z,20.27
2022-11-17T22:19:14.581Z,20.38
2022-11-17T22:21:43.084Z,18.63
2022-11-17T22:24:11.712Z,17.30
2022-11-17T22:26:41.407Z,18.80
2022-11-17T22:29:15.365Z,17.60
2022-11-17T22:31:42.865Z,18.10
2022-11-17T22:34:10.554Z,16.60
2022-11-17T22:36:37.806Z,17.55
2022-11-17T22:39:05.388Z,17.23
2022-11-17T22:41:32.391Z,17.02
2022-11-17T22:43:59.833Z,18.67
2022-11-17T22:46:28.740Z,16.10
2022-11-17T22:48:56.295Z,20.75
2022-11-17T22:51:43.380Z,20.20
2022-11-17T22:54:11.245Z,16.23
2022-11-17T22:56:38.287Z,14.90
2022-11-17T22:59:05.644Z,15.77
2022-11-17T23:01:32.982Z,17.42
2022-11-17T23:04:00.294Z,17.88
2022-11-17T23:06:27.608Z,15.70
2022-11-17T23:08:56.120Z,21.23
2022-11-17T23:11:39.301Z,19.67
2022-11-17T23:14:09.931Z,15.63
2022-11-17T23:16:37.973Z,18.30
2022-11-17T23:19:05.752Z,16.52
2022-11-17T23:21:32.909Z,12.88
2022-11-17T23:24:00.137Z,14.93
2022-11-17T23:26:27.362Z,17.38
2022-11-17T23:28:54.499Z,17.88
2022-11-17T23:31:21.747Z,14.57
2022-11-17T23:33:49.080Z,16.27
2022-11-17T23:36:18.605Z,16.02
2022-11-17T23:38:47.212Z,15.60
2022-11-17T23:41:15.901Z,15.38
2022-11-17T23:43:43.401Z,13.48
2022-11-17T23:46:15.821Z,19.27
2022-11-17T23:48:43.880Z,19.70
2022-11-17T23:51:20.257Z,14.20
2022-11-17T23:53:47.597Z,14.48
2022-11-17T23:56:15.453Z,10.88
2022-11-17T23:58:42.846Z,12.90
